LTBALTBH

Guest
Details From LTBA - Istanbul Ataturk
To LTBH - CANAKKALE
Flight Number -
Tags generated
Created
Modified
Stats Distance 121 nm / 224 km
Max Altitude 12,200 ft / 3,719 m
Waypoints 3
Social Downloads 0
Likes 0
Share VATSIM

Download

Looking for another format? Having issues loading an existing format? Contact us
Advertisement - Login to hide

Notes

Basic altitude profile: - Ascent Rate: 2500ft/min - Ascent Speed: 250kts - Cruise Altitude: 2000ft - Cruise Speed: 100kts - Descent Rate: 1500ft/min - Descent Speed: 250kts Options: - Use NATs: yes - Use PACOTS: yes - Use low airways: yes - Use high airways: yes

Route

LTBA DENIZ LTBH

ID Type Via Altitude Latitude Longitude Leg Dist Tot Dist Heading (true) Name
O LTBA APT - 0 ft / 0 m 40.97914˚ 28.81283˚ - 0 nm - Istanbul Ataturk
DENIZ FIX - 12,200 ft / 3,719 m 40.83222˚ 28.02167˚ 36 nm 36 nm 256° / 256° -
O LTBH APT - 0 ft / 0 m 40.13771˚ 26.42676˚ 83 nm 120 nm 241° / 240° CANAKKALE

Altitude Profile

Advertisement - Login to hide

LTBA

Details ICAO LTBA (IST)
Name Istanbul Ataturk
Region Turkey
Timezone Europe/Istanbul (UTC+3.0)
Stats Elevation 163 ft / 50 m (AMSL)
Location 40.979136° 28.812832°
Runways 3
Magnetic Variation 5.429° E

METAR

LTBA 132050Z 20012KT CAVOK 14/11 Q1017 NOSIG

Decode

TAF

TAF LTBA 131640Z 1318/1424 21012KT CAVOK BECMG 1322/1401 23015G27KT FEW030 BKN100 BECMG 1411/1414 22009KT CAVOK

Decode

Departure Runways

ID Width Length Bearing (true) Bearing (mag) Surface Threshold Offset Overrun Length
05 197 ft / 60 m 8,514 ft / 2,595 m 58.64° 53.21° Concrete 400 ft / 122 m 197 ft / 60 m
17L 148 ft / 45 m 9,820 ft / 2,993 m 178.48° 173.05° Concrete 0 ft / 0 m 197 ft / 60 m
17R 148 ft / 45 m 9,858 ft / 3,005 m 178.49° 173.06° Concrete 0 ft / 0 m 0 ft / 0 m
23 197 ft / 60 m 8,514 ft / 2,595 m 238.65° 233.22° Concrete 0 ft / 0 m 197 ft / 60 m
35L 148 ft / 45 m 9,858 ft / 3,005 m 358.49° 353.06° Concrete 0 ft / 0 m 200 ft / 61 m
35R 148 ft / 45 m 9,820 ft / 2,993 m 358.48° 353.05° Concrete 0 ft / 0 m 197 ft / 60 m

LTBH

Details ICAO LTBH (CKZ)
Name CANAKKALE
Region Turkey
Timezone Europe/Istanbul (UTC+3.0)
Stats Elevation 23 ft / 7 m (AMSL)
Location 40.137709° 26.426764°
Runways 1
Magnetic Variation 5.031° E

METAR

LTBH 132050Z 19009KT CAVOK 15/10 Q1017

Decode

TAF

Not found

Destination Runways

ID Width Length Bearing (true) Bearing (mag) Surface Threshold Offset Overrun Length
04 98 ft / 30 m 5,905 ft / 1,800 m 41.10° 36.07° Concrete 0 ft / 0 m 100 ft / 30 m
22 98 ft / 30 m 5,905 ft / 1,800 m 221.11° 216.08° Concrete 0 ft / 0 m 100 ft / 30 m

Popular Alternatives